createdAt,value
2023-01-10T00:02:42.050Z,75.55
2023-01-10T00:05:29.203Z,75.67
2023-01-10T00:08:17.185Z,75.91
2023-01-10T00:11:23.978Z,75.82
2023-01-10T00:14:11.371Z,75.60
2023-01-10T00:16:58.208Z,75.67
2023-01-10T00:19:44.971Z,76.05
2023-01-10T00:22:31.807Z,75.79
2023-01-10T00:25:21.672Z,75.53
2023-01-10T00:28:22.259Z,75.75
2023-01-10T00:31:10.094Z,75.68
2023-01-10T00:33:56.970Z,75.76
2023-01-10T00:36:45.559Z,75.59
2023-01-10T00:39:32.386Z,75.38
2023-01-10T00:42:38.018Z,75.54
2023-01-10T00:45:26.620Z,75.42
2023-01-10T00:48:16.590Z,76.12
2023-01-10T00:51:04.161Z,75.52
2023-01-10T00:53:50.987Z,75.66
2023-01-10T00:56:37.873Z,75.55
2023-01-10T00:59:24.884Z,75.50
2023-01-10T01:02:11.857Z,75.92
2023-01-10T01:04:58.792Z,75.54
2023-01-10T01:07:49.920Z,75.37
2023-01-10T01:10:36.956Z,76.01
2023-01-10T01:13:23.821Z,75.69
2023-01-10T01:16:10.697Z,75.56
2023-01-10T01:18:58.217Z,75.58
2023-01-10T01:21:45.052Z,75.82
2023-01-10T01:24:31.882Z,75.30
2023-01-10T01:27:18.717Z,75.77
2023-01-10T01:30:07.184Z,75.46
2023-01-10T01:32:54.021Z,75.55
2023-01-10T01:35:45.605Z,75.43
2023-01-10T01:38:32.419Z,75.26
2023-01-10T01:41:37.867Z,75.35
2023-01-10T01:44:28.447Z,75.72
2023-01-10T01:47:25.271Z,75.29
2023-01-10T01:50:21.518Z,75.43
2023-01-10T01:53:13.924Z,75.45
2023-01-10T01:56:22.544Z,75.49
2023-01-10T01:59:14.585Z,75.66
2023-01-10T02:02:05.779Z,75.30
2023-01-10T02:04:58.673Z,75.43
2023-01-10T02:07:46.528Z,75.93
2023-01-10T02:11:06.108Z,75.58
2023-01-10T02:13:53.503Z,75.39
2023-01-10T02:16:40.463Z,75.53
2023-01-10T02:19:51.925Z,75.53
2023-01-10T02:22:45.019Z,75.80
2023-01-10T02:26:00.329Z,75.49
2023-01-10T02:29:08.863Z,75.99
2023-01-10T02:32:13.519Z,75.43
2023-01-10T02:35:09.765Z,75.72
2023-01-10T02:38:18.488Z,76.07
2023-01-10T02:41:27.629Z,76.02
2023-01-10T02:44:18.673Z,75.87
2023-01-10T02:47:07.880Z,75.38
2023-01-10T02:49:54.568Z,75.51
2023-01-10T02:52:41.352Z,75.80
2023-01-10T02:55:38.511Z,75.99
2023-01-10T02:58:59.528Z,76.11
2023-01-10T03:02:10.120Z,76.16
2023-01-10T03:05:29.226Z,76.08
2023-01-10T03:08:36.101Z,75.68
2023-01-10T03:11:40.071Z,75.93
2023-01-10T03:14:28.916Z,75.98
2023-01-10T03:17:17.261Z,75.87
2023-01-10T03:20:06.121Z,76.21
2023-01-10T03:22:55.302Z,76.08
2023-01-10T03:25:41.967Z,76.17
2023-01-10T03:28:34.036Z,76.16
2023-01-10T03:31:29.681Z,76.16
2023-01-10T03:34:16.889Z,75.93
2023-01-10T03:37:27.829Z,75.89
2023-01-10T03:40:30.971Z,76.08
2023-01-10T03:43:59.901Z,75.69
2023-01-10T03:46:53.399Z,75.73
2023-01-10T03:49:42.019Z,75.87
2023-01-10T03:52:29.502Z,75.72
2023-01-10T03:55:20.453Z,75.99
2023-01-10T03:58:07.433Z,76.03
2023-01-10T04:00:55.080Z,75.63
2023-01-10T04:03:45.120Z,75.98
2023-01-10T04:06:53.839Z,75.81
2023-01-10T04:09:40.765Z,76.20
2023-01-10T04:12:27.677Z,75.97
2023-01-10T04:15:16.030Z,76.10
2023-01-10T04:18:02.845Z,75.87
2023-01-10T04:20:52.077Z,75.97
2023-01-10T04:23:39.170Z,75.65
2023-01-10T04:26:26.105Z,75.42
2023-01-10T04:29:13.127Z,75.83
2023-01-10T04:32:01.106Z,75.99
2023-01-10T04:34:47.991Z,75.94
2023-01-10T04:37:34.935Z,76.00
2023-01-10T04:40:23.420Z,75.53
2023-01-10T04:43:10.804Z,75.55
2023-01-10T04:45:57.645Z,76.04
2023-01-10T04:48:44.537Z,75.53
2023-01-10T04:51:31.301Z,75.67
2023-01-10T04:54:23.911Z,75.68
2023-01-10T04:57:10.813Z,75.77
2023-01-10T04:59:57.589Z,75.65
2023-01-10T05:02:45.929Z,75.76
2023-01-10T05:05:32.988Z,75.82
2023-01-10T05:08:19.909Z,75.95
2023-01-10T05:11:07.111Z,76.05
2023-01-10T05:13:57.352Z,75.98
2023-01-10T05:16:44.318Z,75.86
2023-01-10T05:19:31.247Z,75.97
2023-01-10T05:22:18.207Z,75.80
2023-01-10T05:25:05.984Z,75.99
2023-01-10T05:27:52.866Z,75.66
2023-01-10T05:30:39.672Z,75.93
2023-01-10T05:33:28.048Z,75.78
2023-01-10T05:36:15.341Z,75.50
2023-01-10T05:39:02.157Z,75.61
2023-01-10T05:41:49.254Z,75.79
2023-01-10T05:44:38.441Z,75.87
2023-01-10T05:47:25.549Z,75.77
2023-01-10T05:50:12.403Z,75.66
2023-01-10T05:53:03.777Z,75.79
2023-01-10T05:55:59.115Z,75.96
2023-01-10T05:58:49.292Z,75.68
2023-01-10T06:01:42.458Z,75.68
2023-01-10T06:04:29.374Z,75.86
2023-01-10T06:07:16.395Z,75.92
2023-01-10T06:10:20.865Z,75.63
2023-01-10T06:13:20.054Z,75.61
2023-01-10T06:16:07.063Z,76.02
2023-01-10T06:18:57.627Z,77.08
2023-01-10T06:21:44.574Z,76.93
2023-01-10T06:24:31.341Z,76.70
2023-01-10T06:27:18.105Z,76.73
2023-01-10T06:30:05.176Z,76.51
2023-01-10T06:32:51.975Z,76.49
2023-01-10T06:35:38.844Z,76.50
2023-01-10T06:38:25.600Z,76.85
2023-01-10T06:41:15.180Z,76.49
2023-01-10T06:44:02.142Z,76.26
2023-01-10T06:46:48.998Z,76.64
2023-01-10T06:49:35.788Z,76.59
2023-01-10T06:52:22.576Z,76.58
2023-01-10T06:55:09.616Z,76.13
2023-01-10T06:58:00.873Z,76.42
2023-01-10T07:00:47.593Z,76.36
2023-01-10T07:03:34.436Z,76.17
2023-01-10T07:06:21.318Z,76.52
2023-01-10T07:09:08.759Z,76.34
2023-01-10T07:11:57.905Z,76.22
2023-01-10T07:14:44.728Z,76.52
2023-01-10T07:17:31.479Z,76.63
2023-01-10T07:20:18.641Z,76.62
2023-01-10T07:23:05.423Z,76.28
2023-01-10T07:25:52.254Z,76.24
2023-01-10T07:28:39.054Z,76.38
2023-01-10T07:31:26.208Z,76.39
2023-01-10T07:34:13.056Z,76.29
2023-01-10T07:36:59.806Z,76.73
2023-01-10T07:39:46.610Z,76.60
2023-01-10T07:42:33.435Z,76.11
2023-01-10T07:45:20.249Z,75.96
2023-01-10T07:48:07.015Z,76.65
2023-01-10T07:50:57.881Z,76.29
2023-01-10T07:53:44.673Z,76.00
2023-01-10T07:56:31.532Z,76.72
2023-01-10T07:59:18.462Z,76.37
2023-01-10T08:02:05.193Z,76.73
2023-01-10T08:04:51.980Z,76.25
2023-01-10T08:07:38.809Z,76.59
2023-01-10T08:10:26.515Z,76.51
2023-01-10T08:13:18.921Z,76.60
2023-01-10T08:16:07.051Z,76.66
2023-01-10T08:18:53.857Z,76.27
2023-01-10T08:21:40.712Z,76.51
2023-01-10T08:24:27.588Z,76.82
2023-01-10T08:27:14.340Z,76.53
2023-01-10T08:30:01.128Z,76.53
2023-01-10T08:32:47.929Z,76.65
2023-01-10T08:35:42.743Z,76.85
2023-01-10T08:38:29.547Z,76.38
2023-01-10T08:41:16.626Z,76.51
2023-01-10T08:44:03.454Z,76.32
2023-01-10T08:46:50.355Z,76.66
2023-01-10T08:49:37.267Z,76.58
2023-01-10T08:52:24.016Z,76.61
2023-01-10T08:55:11.041Z,76.43
2023-01-10T08:58:02.020Z,76.58
2023-01-10T09:00:49.477Z,76.22
2023-01-10T09:03:36.288Z,76.03
2023-01-10T09:06:24.194Z,75.95
2023-01-10T09:09:10.958Z,75.85
2023-01-10T09:11:57.712Z,76.26
2023-01-10T09:14:44.476Z,76.17
2023-01-10T09:17:31.294Z,76.14
2023-01-10T09:20:18.079Z,75.90
2023-01-10T09:23:09.134Z,75.80
2023-01-10T09:25:57.770Z,76.06
2023-01-10T09:28:44.560Z,76.25
2023-01-10T09:31:31.368Z,75.96
2023-01-10T09:34:18.145Z,75.86
2023-01-10T09:37:04.958Z,75.86
2023-01-10T09:39:52.888Z,75.85
2023-01-10T09:42:39.633Z,76.39
2023-01-10T09:45:39.567Z,75.91
2023-01-10T09:48:44.733Z,75.98
2023-01-10T09:51:41.800Z,76.49
2023-01-10T09:54:32.162Z,76.56
2023-01-10T09:57:20.862Z,76.71
2023-01-10T10:00:09.036Z,77.07
2023-01-10T10:02:57.775Z,76.78
2023-01-10T10:05:54.067Z,76.90
2023-01-10T10:08:44.588Z,76.91
2023-01-10T10:11:44.675Z,77.13
2023-01-10T10:14:37.397Z,76.73
2023-01-10T10:17:33.212Z,76.77
2023-01-10T10:20:25.228Z,76.79
2023-01-10T10:23:24.333Z,76.41
2023-01-10T10:26:32.782Z,76.64
2023-01-10T10:29:47.573Z,76.60
2023-01-10T10:32:46.595Z,76.52
2023-01-10T10:35:38.353Z,76.44
2023-01-10T10:38:29.863Z,76.94
2023-01-10T10:41:36.596Z,76.80
2023-01-10T10:44:41.709Z,76.74
2023-01-10T10:47:35.439Z,76.73
2023-01-10T10:50:34.221Z,76.68
2023-01-10T10:53:21.097Z,76.44
2023-01-10T10:56:12.054Z,76.77
2023-01-10T10:58:59.650Z,76.61
2023-01-10T11:01:49.667Z,76.72
2023-01-10T11:04:36.852Z,76.85
2023-01-10T11:07:24.540Z,76.44
2023-01-10T11:10:20.971Z,76.54
2023-01-10T11:13:21.867Z,76.74
2023-01-10T11:16:08.871Z,76.83
2023-01-10T11:19:17.637Z,76.67
2023-01-10T11:22:06.704Z,76.86
2023-01-10T11:24:59.700Z,77.02
2023-01-10T11:27:50.110Z,77.31
2023-01-10T11:30:37.097Z,77.37
2023-01-10T11:33:28.220Z,77.31
2023-01-10T11:36:15.886Z,77.43
2023-01-10T11:39:04.313Z,77.33
2023-01-10T11:41:53.167Z,77.19
2023-01-10T11:44:39.921Z,76.81
2023-01-10T11:47:29.811Z,77.26
2023-01-10T11:50:25.057Z,77.06
2023-01-10T11:53:31.334Z,77.16
2023-01-10T11:56:27.619Z,77.32
2023-01-10T11:59:16.888Z,77.05
2023-01-10T12:02:05.121Z,77.27
2023-01-10T12:04:53.092Z,77.58
2023-01-10T12:08:06.080Z,76.85
2023-01-10T12:10:58.931Z,77.14
2023-01-10T12:13:51.491Z,77.22
2023-01-10T12:16:38.426Z,77.05
2023-01-10T12:19:31.206Z,76.95
2023-01-10T12:25:43.418Z,77.26
2023-01-10T12:28:33.252Z,77.23
2023-01-10T12:31:22.148Z,77.23
2023-01-10T12:34:20.875Z,76.97
2023-01-10T12:37:29.451Z,76.86
2023-01-10T12:40:43.144Z,76.86
2023-01-10T12:43:54.574Z,76.50
2023-01-10T12:47:06.588Z,76.66
2023-01-10T12:50:26.276Z,76.80
2023-01-10T12:53:30.391Z,77.10
2023-01-10T12:56:18.707Z,76.94
2023-01-10T12:59:32.604Z,76.57
2023-01-10T13:02:25.977Z,76.48
2023-01-10T13:05:20.010Z,76.38
2023-01-10T13:08:20.297Z,76.42
2023-01-10T13:11:07.933Z,76.14
2023-01-10T13:13:57.185Z,76.22
2023-01-10T13:16:55.824Z,75.51
2023-01-10T13:20:23.808Z,75.52
2023-01-10T13:23:23.169Z,75.40
2023-01-10T13:26:10.198Z,75.65
2023-01-10T13:29:03.972Z,75.11
2023-01-10T13:31:58.503Z,74.98
2023-01-10T13:38:10.176Z,74.62
2023-01-10T13:41:05.693Z,74.34
2023-01-10T13:44:27.765Z,73.98
2023-01-10T13:47:48.026Z,73.80
2023-01-10T13:50:52.021Z,74.10
2023-01-10T13:53:43.826Z,73.79
2023-01-10T13:56:57.984Z,73.48
2023-01-10T14:00:28.197Z,73.51
2023-01-10T14:03:45.823Z,72.93
2023-01-10T14:07:01.622Z,73.07
2023-01-10T14:10:07.698Z,73.21
2023-01-10T14:13:16.731Z,72.54
2023-01-10T14:16:05.092Z,72.74
2023-01-10T14:19:00.105Z,72.82
2023-01-10T14:21:48.683Z,73.00
2023-01-10T14:24:41.827Z,72.42
2023-01-10T14:27:44.791Z,72.25
2023-01-10T14:30:46.274Z,72.50
2023-01-10T14:33:37.082Z,72.63
2023-01-10T14:36:34.389Z,72.24
2023-01-10T14:39:35.462Z,71.86
2023-01-10T14:42:26.080Z,72.10
2023-01-10T14:45:28.425Z,72.25
2023-01-10T14:48:46.576Z,72.66
2023-01-10T14:51:36.482Z,72.37
2023-01-10T14:54:27.868Z,72.50
2023-01-10T14:57:24.291Z,72.82
2023-01-10T15:00:17.972Z,72.51
2023-01-10T15:03:07.007Z,72.95
2023-01-10T15:06:26.499Z,72.61
2023-01-10T15:09:20.047Z,72.75
2023-01-10T15:12:21.771Z,73.07
2023-01-10T15:15:21.786Z,72.82
2023-01-10T15:18:36.444Z,73.14
2023-01-10T15:21:24.346Z,73.01
2023-01-10T15:24:34.026Z,72.79
2023-01-10T15:28:00.368Z,72.95
2023-01-10T15:30:55.396Z,72.76
2023-01-10T15:33:45.827Z,72.40
2023-01-10T15:43:51.169Z,72.83
2023-01-10T15:54:47.223Z,72.87
2023-01-10T15:57:41.759Z,72.52
2023-01-10T16:01:02.252Z,73.02
2023-01-10T16:03:59.775Z,72.84
2023-01-10T16:06:58.913Z,72.44
2023-01-10T16:09:53.389Z,72.38
2023-01-10T16:13:02.600Z,72.34
2023-01-10T16:15:53.769Z,72.63
2023-01-10T16:18:40.547Z,72.34
2023-01-10T16:21:31.488Z,73.11
2023-01-10T16:24:30.021Z,73.53
2023-01-10T16:27:16.858Z,73.50
2023-01-10T16:30:03.791Z,73.78
2023-01-10T16:32:50.705Z,73.73
2023-01-10T16:35:37.670Z,73.95
2023-01-10T16:38:28.797Z,73.66
2023-01-10T16:41:34.721Z,74.06
2023-01-10T16:44:21.501Z,73.31
2023-01-10T16:47:08.263Z,73.43
2023-01-10T16:49:57.828Z,73.36
2023-01-10T16:52:44.622Z,73.31
2023-01-10T16:55:46.439Z,73.49
2023-01-10T16:58:34.060Z,73.63
2023-01-10T17:01:26.175Z,73.35
2023-01-10T17:04:18.512Z,73.68
2023-01-10T17:07:05.396Z,73.34
2023-01-10T17:09:52.272Z,73.01
2023-01-10T17:12:39.492Z,73.21
2023-01-10T17:15:35.167Z,73.27
2023-01-10T17:18:24.751Z,72.89
2023-01-10T17:21:17.747Z,73.06
2023-01-10T17:24:12.429Z,73.32
2023-01-10T17:27:05.899Z,73.28
2023-01-10T17:29:55.667Z,73.29
2023-01-10T17:32:42.674Z,72.71
2023-01-10T17:35:47.953Z,73.27
2023-01-10T17:38:34.887Z,73.38
2023-01-10T17:41:30.347Z,73.03
2023-01-10T17:44:17.225Z,73.05
2023-01-10T17:47:04.127Z,72.74
2023-01-10T17:49:50.906Z,73.00
2023-01-10T17:52:39.442Z,73.13
2023-01-10T17:55:26.322Z,72.95
2023-01-10T17:58:16.153Z,72.84
2023-01-10T18:01:07.860Z,73.00
2023-01-10T18:03:57.246Z,72.90
2023-01-10T18:06:52.333Z,72.94
2023-01-10T18:09:54.643Z,72.56
2023-01-10T18:12:41.491Z,72.50
2023-01-10T18:15:28.463Z,72.77
2023-01-10T18:18:16.724Z,73.02
2023-01-10T18:21:13.200Z,72.65
2023-01-10T18:24:01.754Z,72.50
2023-01-10T18:26:48.699Z,72.76
2023-01-10T18:29:35.540Z,73.00
2023-01-10T18:32:22.725Z,72.46
2023-01-10T18:35:10.032Z,72.57
2023-01-10T18:38:07.709Z,72.54
2023-01-10T18:40:56.326Z,72.73
2023-01-10T18:43:43.169Z,72.35
2023-01-10T18:46:30.574Z,72.76
2023-01-10T18:49:17.516Z,72.64
2023-01-10T18:52:04.486Z,72.40
2023-01-10T18:54:54.599Z,72.52
2023-01-10T18:57:41.964Z,72.14
2023-01-10T19:00:30.349Z,72.17
2023-01-10T19:03:21.451Z,72.54
2023-01-10T19:06:14.522Z,72.28
2023-01-10T19:09:01.512Z,72.43
2023-01-10T19:11:48.508Z,72.56
2023-01-10T19:14:37.421Z,72.21
2023-01-10T19:17:25.280Z,72.33
2023-01-10T19:20:14.929Z,71.88
2023-01-10T19:23:01.901Z,72.11
2023-01-10T19:26:06.021Z,72.41
2023-01-10T19:28:57.495Z,72.20
2023-01-10T19:31:48.276Z,72.20
2023-01-10T19:34:37.907Z,72.11
2023-01-10T19:37:33.620Z,72.36
2023-01-10T19:40:20.846Z,72.22
2023-01-10T19:43:10.959Z,72.13
2023-01-10T19:46:01.588Z,72.15
2023-01-10T19:48:57.933Z,72.05
2023-01-10T19:51:51.260Z,72.48
2023-01-10T19:54:47.489Z,72.20
2023-01-10T19:57:40.332Z,72.24
2023-01-10T20:00:38.102Z,72.28
2023-01-10T20:07:06.033Z,72.27
2023-01-10T20:09:57.019Z,72.11
2023-01-10T20:12:45.877Z,72.24
2023-01-10T20:19:02.357Z,72.10
2023-01-10T20:21:57.857Z,72.05
2023-01-10T20:24:50.219Z,72.09
2023-01-10T20:27:39.562Z,72.08
2023-01-10T20:30:29.132Z,71.85
2023-01-10T20:33:17.334Z,71.48
2023-01-10T20:36:18.279Z,71.65
2023-01-10T20:39:05.468Z,71.81
2023-01-10T20:41:52.546Z,71.44
2023-01-10T20:44:40.369Z,71.71
2023-01-10T20:47:28.608Z,71.55
2023-01-10T20:57:25.427Z,71.22
2023-01-10T21:00:20.693Z,71.45
2023-01-10T21:03:10.063Z,71.74
2023-01-10T21:06:27.591Z,71.51
2023-01-10T21:12:54.409Z,71.85
2023-01-10T21:15:51.351Z,72.13
2023-01-10T21:18:45.243Z,71.87
2023-01-10T21:21:42.781Z,71.79
2023-01-10T21:24:47.308Z,72.16
2023-01-10T21:27:39.029Z,71.92
2023-01-10T21:31:00.324Z,72.51
2023-01-10T21:34:03.855Z,72.37
2023-01-10T21:37:07.970Z,72.28
2023-01-10T21:40:00.256Z,71.80
2023-01-10T21:42:56.937Z,72.35
2023-01-10T21:46:02.308Z,72.27
2023-01-10T21:48:50.746Z,72.14
2023-01-10T21:51:37.670Z,72.38
2023-01-10T21:54:27.592Z,72.58
2023-01-10T21:57:21.861Z,72.31
2023-01-10T22:00:09.444Z,72.27
2023-01-10T22:02:57.641Z,72.13
2023-01-10T22:05:47.003Z,72.38
2023-01-10T22:08:38.422Z,72.28
2023-01-10T22:11:34.274Z,72.44
2023-01-10T22:14:22.086Z,72.30
2023-01-10T22:17:12.025Z,72.46
2023-01-10T22:20:02.034Z,72.61
2023-01-10T22:22:52.341Z,72.64
2023-01-10T22:25:39.287Z,72.30
2023-01-10T22:28:26.372Z,72.56
2023-01-10T22:31:13.400Z,72.41
2023-01-10T22:34:02.774Z,72.66
2023-01-10T22:36:51.348Z,72.70
2023-01-10T22:39:38.180Z,72.62
2023-01-10T22:42:39.703Z,72.58
2023-01-10T22:45:27.418Z,72.46
2023-01-10T22:48:16.961Z,72.72
2023-01-10T22:51:10.434Z,72.73
2023-01-10T22:54:03.565Z,72.74
2023-01-10T22:56:50.508Z,72.60
2023-01-10T22:59:40.106Z,72.50
2023-01-10T23:02:33.705Z,72.49
2023-01-10T23:05:22.772Z,72.68
2023-01-10T23:08:09.820Z,72.80
2023-01-10T23:10:56.740Z,72.68
2023-01-10T23:13:44.596Z,72.67
2023-01-10T23:16:32.760Z,72.74
2023-01-10T23:19:19.659Z,72.69
2023-01-10T23:22:06.545Z,72.60
2023-01-10T23:24:53.798Z,72.70
2023-01-10T23:27:40.641Z,72.76
2023-01-10T23:30:28.871Z,72.83
2023-01-10T23:33:15.930Z,72.60
2023-01-10T23:36:03.771Z,72.54
2023-01-10T23:38:53.758Z,72.52
2023-01-10T23:41:43.100Z,72.68
2023-01-10T23:44:34.067Z,72.68
2023-01-10T23:47:25.109Z,72.63
2023-01-10T23:50:12.017Z,72.68
2023-01-10T23:52:58.988Z,72.82
2023-01-10T23:55:50.523Z,72.77
2023-01-10T23:58:38.061Z,72.73
